sensor_id;sensor_type;location;lat;lon;timestamp;temperature;humidity
34640;DHT22;22600;48.186;11.526;2023-05-10T00:02:24;23.80;48.60
34640;DHT22;22600;48.186;11.526;2023-05-10T00:04:50;23.80;48.60
34640;DHT22;22600;48.186;11.526;2023-05-10T00:07:16;23.80;48.60
34640;DHT22;22600;48.186;11.526;2023-05-10T00:09:42;23.80;48.60
34640;DHT22;22600;48.186;11.526;2023-05-10T00:12:08;23.80;48.60
34640;DHT22;22600;48.186;11.526;2023-05-10T00:14:34;23.80;48.70
34640;DHT22;22600;48.186;11.526;2023-05-10T00:16:59;23.80;48.70
34640;DHT22;22600;48.186;11.526;2023-05-10T00:19:25;23.80;48.60
34640;DHT22;22600;48.186;11.526;2023-05-10T00:21:50;23.80;48.70
34640;DHT22;22600;48.186;11.526;2023-05-10T00:24:16;23.80;48.70
34640;DHT22;22600;48.186;11.526;2023-05-10T00:26:41;23.80;48.70
34640;DHT22;22600;48.186;11.526;2023-05-10T00:29:07;23.80;48.70
34640;DHT22;22600;48.186;11.526;2023-05-10T00:31:33;23.90;48.80
34640;DHT22;22600;48.186;11.526;2023-05-10T00:33:58;23.80;48.80
34640;DHT22;22600;48.186;11.526;2023-05-10T00:36:23;23.80;48.80
34640;DHT22;22600;48.186;11.526;2023-05-10T00:38:49;23.80;48.80
34640;DHT22;22600;48.186;11.526;2023-05-10T00:41:14;23.80;48.80
34640;DHT22;22600;48.186;11.526;2023-05-10T00:43:40;23.80;48.80
34640;DHT22;22600;48.186;11.526;2023-05-10T00:46:06;27.00;50.70
34640;DHT22;22600;48.186;11.526;2023-05-10T00:48:32;23.80;48.80
34640;DHT22;22600;48.186;11.526;2023-05-10T00:50:58;23.80;48.80
34640;DHT22;22600;48.186;11.526;2023-05-10T00:53:24;23.80;48.80
34640;DHT22;22600;48.186;11.526;2023-05-10T00:55:49;23.80;48.90
34640;DHT22;22600;48.186;11.526;2023-05-10T00:58:16;23.80;48.80
34640;DHT22;22600;48.186;11.526;2023-05-10T01:00:42;23.80;48.80
34640;DHT22;22600;48.186;11.526;2023-05-10T01:03:09;26.20;50.20
34640;DHT22;22600;48.186;11.526;2023-05-10T01:05:34;23.80;48.90
34640;DHT22;22600;48.186;11.526;2023-05-10T01:08:00;23.80;48.90
34640;DHT22;22600;48.186;11.526;2023-05-10T01:10:25;23.80;48.90
34640;DHT22;22600;48.186;11.526;2023-05-10T01:12:51;23.80;48.90
34640;DHT22;22600;48.186;11.526;2023-05-10T01:15:17;23.80;48.90
34640;DHT22;22600;48.186;11.526;2023-05-10T01:17:43;23.80;48.90
34640;DHT22;22600;48.186;11.526;2023-05-10T01:20:09;23.70;48.80
34640;DHT22;22600;48.186;11.526;2023-05-10T01:23:42;23.80;48.90
34640;DHT22;22600;48.186;11.526;2023-05-10T01:31:03;23.80;48.90
34640;DHT22;22600;48.186;11.526;2023-05-10T01:43:32;23.80;49.00
34640;DHT22;22600;48.186;11.526;2023-05-10T01:46:09;23.80;49.00
34640;DHT22;22600;48.186;11.526;2023-05-10T01:48:40;26.70;50.60
34640;DHT22;22600;48.186;11.526;2023-05-10T01:51:11;23.80;49.00
34640;DHT22;22600;48.186;11.526;2023-05-10T01:53:37;23.80;49.00
34640;DHT22;22600;48.186;11.526;2023-05-10T01:56:04;23.80;49.00
34640;DHT22;22600;48.186;11.526;2023-05-10T01:58:30;23.80;49.60
34640;DHT22;22600;48.186;11.526;2023-05-10T02:00:57;23.80;49.00
34640;DHT22;22600;48.186;11.526;2023-05-10T02:03:24;23.80;49.00
34640;DHT22;22600;48.186;11.526;2023-05-10T02:05:50;23.80;49.00
34640;DHT22;22600;48.186;11.526;2023-05-10T02:08:17;23.80;49.10
34640;DHT22;22600;48.186;11.526;2023-05-10T02:10:43;23.80;49.00
34640;DHT22;22600;48.186;11.526;2023-05-10T02:13:10;23.80;49.10
34640;DHT22;22600;48.186;11.526;2023-05-10T02:15:36;23.80;49.10
34640;DHT22;22600;48.186;11.526;2023-05-10T02:18:02;23.80;49.10
34640;DHT22;22600;48.186;11.526;2023-05-10T02:20:29;23.80;49.10
34640;DHT22;22600;48.186;11.526;2023-05-10T02:22:55;23.80;49.10
34640;DHT22;22600;48.186;11.526;2023-05-10T02:25:21;23.80;49.10
34640;DHT22;22600;48.186;11.526;2023-05-10T02:27:48;23.80;49.10
34640;DHT22;22600;48.186;11.526;2023-05-10T02:30:14;23.90;49.20
34640;DHT22;22600;48.186;11.526;2023-05-10T02:32:40;23.80;49.10
34640;DHT22;22600;48.186;11.526;2023-05-10T02:35:06;23.80;49.10
34640;DHT22;22600;48.186;11.526;2023-05-10T02:37:32;23.80;49.20
34640;DHT22;22600;48.186;11.526;2023-05-10T02:39:59;23.80;49.10
34640;DHT22;22600;48.186;11.526;2023-05-10T02:42:26;23.80;49.10
34640;DHT22;22600;48.186;11.526;2023-05-10T02:44:53;23.80;49.20
34640;DHT22;22600;48.186;11.526;2023-05-10T02:47:19;23.90;49.20
34640;DHT22;22600;48.186;11.526;2023-05-10T02:49:45;23.90;49.20
34640;DHT22;22600;48.186;11.526;2023-05-10T02:52:10;23.80;49.20
34640;DHT22;22600;48.186;11.526;2023-05-10T02:54:49;23.80;49.20
34640;DHT22;22600;48.186;11.526;2023-05-10T02:57:16;23.80;49.20
34640;DHT22;22600;48.186;11.526;2023-05-10T02:59:44;23.80;49.20
34640;DHT22;22600;48.186;11.526;2023-05-10T03:02:11;23.90;49.20
34640;DHT22;22600;48.186;11.526;2023-05-10T03:04:37;23.80;49.20
34640;DHT22;22600;48.186;11.526;2023-05-10T03:07:02;23.80;49.20
34640;DHT22;22600;48.186;11.526;2023-05-10T03:09:28;23.80;49.20
34640;DHT22;22600;48.186;11.526;2023-05-10T03:17:23;23.80;49.20
34640;DHT22;22600;48.186;11.526;2023-05-10T03:19:54;23.80;49.30
34640;DHT22;22600;48.186;11.526;2023-05-10T03:22:41;23.80;49.30
34640;DHT22;22600;48.186;11.526;2023-05-10T03:25:09;23.80;49.20
34640;DHT22;22600;48.186;11.526;2023-05-10T03:27:36;23.80;49.30
34640;DHT22;22600;48.186;11.526;2023-05-10T03:30:02;23.80;49.30
34640;DHT22;22600;48.186;11.526;2023-05-10T03:32:28;23.80;49.30
34640;DHT22;22600;48.186;11.526;2023-05-10T03:34:54;23.80;49.30
34640;DHT22;22600;48.186;11.526;2023-05-10T03:37:19;23.80;49.30
34640;DHT22;22600;48.186;11.526;2023-05-10T03:39:44;23.80;49.30
34640;DHT22;22600;48.186;11.526;2023-05-10T03:42:10;24.00;49.40
34640;DHT22;22600;48.186;11.526;2023-05-10T03:44:38;23.90;49.40
34640;DHT22;22600;48.186;11.526;2023-05-10T03:47:03;23.10;49.00
34640;DHT22;22600;48.186;11.526;2023-05-10T03:49:29;23.80;49.40
34640;DHT22;22600;48.186;11.526;2023-05-10T03:51:54;23.80;49.30
34640;DHT22;22600;48.186;11.526;2023-05-10T03:54:20;23.80;49.30
34640;DHT22;22600;48.186;11.526;2023-05-10T03:56:45;23.80;49.30
34640;DHT22;22600;48.186;11.526;2023-05-10T03:59:13;23.80;49.30
34640;DHT22;22600;48.186;11.526;2023-05-10T04:01:38;23.80;49.30
34640;DHT22;22600;48.186;11.526;2023-05-10T04:04:04;23.70;49.30
34640;DHT22;22600;48.186;11.526;2023-05-10T04:06:29;23.80;49.40
34640;DHT22;22600;48.186;11.526;2023-05-10T04:08:55;23.80;49.40
34640;DHT22;22600;48.186;11.526;2023-05-10T04:11:20;23.80;49.50
34640;DHT22;22600;48.186;11.526;2023-05-10T04:13:47;23.80;49.70
34640;DHT22;22600;48.186;11.526;2023-05-10T04:16:12;23.80;49.70
34640;DHT22;22600;48.186;11.526;2023-05-10T04:18:38;23.80;49.70
34640;DHT22;22600;48.186;11.526;2023-05-10T04:21:04;23.80;49.70
34640;DHT22;22600;48.186;11.526;2023-05-10T04:23:35;23.80;49.80
34640;DHT22;22600;48.186;11.526;2023-05-10T04:26:01;23.70;49.90
34640;DHT22;22600;48.186;11.526;2023-05-10T04:28:27;23.80;50.00
34640;DHT22;22600;48.186;11.526;2023-05-10T04:30:52;23.80;49.90
34640;DHT22;22600;48.186;11.526;2023-05-10T04:33:18;23.80;50.00
34640;DHT22;22600;48.186;11.526;2023-05-10T04:35:43;23.80;50.10
34640;DHT22;22600;48.186;11.526;2023-05-10T04:38:10;23.70;50.00
34640;DHT22;22600;48.186;11.526;2023-05-10T04:40:35;27.40;52.10
34640;DHT22;22600;48.186;11.526;2023-05-10T04:43:01;23.80;50.00
34640;DHT22;22600;48.186;11.526;2023-05-10T04:45:26;23.80;50.00
34640;DHT22;22600;48.186;11.526;2023-05-10T04:47:52;23.80;50.00
34640;DHT22;22600;48.186;11.526;2023-05-10T04:50:17;23.80;50.00
34640;DHT22;22600;48.186;11.526;2023-05-10T04:52:43;23.80;50.00
34640;DHT22;22600;48.186;11.526;2023-05-10T04:55:08;23.80;49.90
34640;DHT22;22600;48.186;11.526;2023-05-10T04:57:35;23.80;49.90
34640;DHT22;22600;48.186;11.526;2023-05-10T05:00:00;23.80;49.90
34640;DHT22;22600;48.186;11.526;2023-05-10T05:02:26;23.80;49.90
34640;DHT22;22600;48.186;11.526;2023-05-10T05:04:51;23.80;49.90
34640;DHT22;22600;48.186;11.526;2023-05-10T05:07:17;23.80;49.90
34640;DHT22;22600;48.186;11.526;2023-05-10T05:09:42;23.80;50.00
34640;DHT22;22600;48.186;11.526;2023-05-10T05:12:07;23.80;49.90
34640;DHT22;22600;48.186;11.526;2023-05-10T05:14:33;23.80;49.90
34640;DHT22;22600;48.186;11.526;2023-05-10T05:16:58;23.80;49.90
34640;DHT22;22600;48.186;11.526;2023-05-10T05:19:24;23.80;49.90
34640;DHT22;22600;48.186;11.526;2023-05-10T05:21:49;23.80;49.90
34640;DHT22;22600;48.186;11.526;2023-05-10T05:24:15;23.80;49.90
34640;DHT22;22600;48.186;11.526;2023-05-10T05:26:41;23.80;49.90
34640;DHT22;22600;48.186;11.526;2023-05-10T05:29:06;23.80;49.90
34640;DHT22;22600;48.186;11.526;2023-05-10T05:31:34;23.80;49.90
34640;DHT22;22600;48.186;11.526;2023-05-10T05:33:59;23.80;49.90
34640;DHT22;22600;48.186;11.526;2023-05-10T05:36:25;23.80;49.90
34640;DHT22;22600;48.186;11.526;2023-05-10T05:38:50;23.80;49.90
34640;DHT22;22600;48.186;11.526;2023-05-10T05:41:15;23.80;49.90
34640;DHT22;22600;48.186;11.526;2023-05-10T05:43:41;23.90;50.00
34640;DHT22;22600;48.186;11.526;2023-05-10T05:46:06;23.80;49.90
34640;DHT22;22600;48.186;11.526;2023-05-10T05:48:32;23.90;50.00
34640;DHT22;22600;48.186;11.526;2023-05-10T05:50:57;23.90;50.00
34640;DHT22;22600;48.186;11.526;2023-05-10T05:53:23;23.80;49.90
34640;DHT22;22600;48.186;11.526;2023-05-10T05:55:52;23.80;49.90
34640;DHT22;22600;48.186;11.526;2023-05-10T05:58:19;23.80;49.90
34640;DHT22;22600;48.186;11.526;2023-05-10T06:00:44;23.90;50.00
34640;DHT22;22600;48.186;11.526;2023-05-10T06:03:10;23.80;49.90
34640;DHT22;22600;48.186;11.526;2023-05-10T06:05:35;26.30;51.30
34640;DHT22;22600;48.186;11.526;2023-05-10T06:08:01;23.80;49.90
34640;DHT22;22600;48.186;11.526;2023-05-10T06:10:26;23.80;49.90
34640;DHT22;22600;48.186;11.526;2023-05-10T06:12:52;23.80;49.90
34640;DHT22;22600;48.186;11.526;2023-05-10T06:15:18;23.80;50.00
34640;DHT22;22600;48.186;11.526;2023-05-10T06:17:43;23.80;49.90
34640;DHT22;22600;48.186;11.526;2023-05-10T06:20:09;24.10;50.00
34640;DHT22;22600;48.186;11.526;2023-05-10T06:22:35;23.80;49.90
34640;DHT22;22600;48.186;11.526;2023-05-10T06:25:00;23.50;49.80
34640;DHT22;22600;48.186;11.526;2023-05-10T06:27:27;23.80;49.90
34640;DHT22;22600;48.186;11.526;2023-05-10T06:29:52;23.80;49.90
34640;DHT22;22600;48.186;11.526;2023-05-10T06:32:18;23.80;50.00
34640;DHT22;22600;48.186;11.526;2023-05-10T06:34:43;23.80;49.90
34640;DHT22;22600;48.186;11.526;2023-05-10T06:37:09;23.80;50.00
34640;DHT22;22600;48.186;11.526;2023-05-10T06:39:35;27.50;52.20
34640;DHT22;22600;48.186;11.526;2023-05-10T06:42:02;23.80;50.00
34640;DHT22;22600;48.186;11.526;2023-05-10T06:44:28;23.80;49.90
34640;DHT22;22600;48.186;11.526;2023-05-10T06:46:54;23.80;50.00
34640;DHT22;22600;48.186;11.526;2023-05-10T06:49:21;23.80;49.90
34640;DHT22;22600;48.186;11.526;2023-05-10T06:51:46;23.80;50.00
34640;DHT22;22600;48.186;11.526;2023-05-10T06:54:11;23.80;50.00
34640;DHT22;22600;48.186;11.526;2023-05-10T06:56:37;23.80;50.00
34640;DHT22;22600;48.186;11.526;2023-05-10T06:59:02;24.00;50.10
34640;DHT22;22600;48.186;11.526;2023-05-10T07:01:28;23.80;50.00
34640;DHT22;22600;48.186;11.526;2023-05-10T07:03:53;23.90;50.00
34640;DHT22;22600;48.186;11.526;2023-05-10T07:06:19;23.90;50.00
34640;DHT22;22600;48.186;11.526;2023-05-10T07:08:44;23.80;50.00
34640;DHT22;22600;48.186;11.526;2023-05-10T07:11:10;23.80;50.00
34640;DHT22;22600;48.186;11.526;2023-05-10T07:13:35;27.00;51.80
34640;DHT22;22600;48.186;11.526;2023-05-10T07:16:01;23.80;50.00
34640;DHT22;22600;48.186;11.526;2023-05-10T07:18:27;23.80;50.00
34640;DHT22;22600;48.186;11.526;2023-05-10T07:20:52;23.80;50.00
34640;DHT22;22600;48.186;11.526;2023-05-10T07:23:18;23.80;50.00
34640;DHT22;22600;48.186;11.526;2023-05-10T07:25:47;23.80;49.90
34640;DHT22;22600;48.186;11.526;2023-05-10T07:28:13;23.90;49.90
34640;DHT22;22600;48.186;11.526;2023-05-10T07:30:39;23.90;49.90
34640;DHT22;22600;48.186;11.526;2023-05-10T07:33:04;23.90;49.90
34640;DHT22;22600;48.186;11.526;2023-05-10T07:35:30;23.90;49.90
34640;DHT22;22600;48.186;11.526;2023-05-10T07:37:56;23.80;49.90
34640;DHT22;22600;48.186;11.526;2023-05-10T07:40:21;23.90;49.90
34640;DHT22;22600;48.186;11.526;2023-05-10T07:42:47;23.90;49.90
34640;DHT22;22600;48.186;11.526;2023-05-10T07:45:12;23.90;50.00
34640;DHT22;22600;48.186;11.526;2023-05-10T07:47:38;23.90;49.90
34640;DHT22;22600;48.186;11.526;2023-05-10T07:50:03;23.90;49.90
34640;DHT22;22600;48.186;11.526;2023-05-10T07:52:29;23.90;49.90
34640;DHT22;22600;48.186;11.526;2023-05-10T07:54:54;23.90;50.00
34640;DHT22;22600;48.186;11.526;2023-05-10T07:57:22;23.90;49.90
34640;DHT22;22600;48.186;11.526;2023-05-10T07:59:47;23.90;49.90
34640;DHT22;22600;48.186;11.526;2023-05-10T08:02:13;23.90;49.90
34640;DHT22;22600;48.186;11.526;2023-05-10T08:04:38;26.20;51.20
34640;DHT22;22600;48.186;11.526;2023-05-10T08:07:04;24.00;50.00
34640;DHT22;22600;48.186;11.526;2023-05-10T08:09:29;23.90;49.90
34640;DHT22;22600;48.186;11.526;2023-05-10T08:11:55;24.00;49.90
34640;DHT22;22600;48.186;11.526;2023-05-10T08:14:20;23.90;49.80
34640;DHT22;22600;48.186;11.526;2023-05-10T08:16:46;23.90;49.80
34640;DHT22;22600;48.186;11.526;2023-05-10T08:19:12;23.90;49.80
34640;DHT22;22600;48.186;11.526;2023-05-10T08:21:37;23.90;49.80
34640;DHT22;22600;48.186;11.526;2023-05-10T08:24:03;23.90;49.30
34640;DHT22;22600;48.186;11.526;2023-05-10T08:26:28;23.90;49.80
34640;DHT22;22600;48.186;11.526;2023-05-10T08:28:53;24.10;49.90
34640;DHT22;22600;48.186;11.526;2023-05-10T08:31:19;24.00;49.80
34640;DHT22;22600;48.186;11.526;2023-05-10T08:33:45;23.90;49.80
34640;DHT22;22600;48.186;11.526;2023-05-10T08:36:10;24.00;49.80
34640;DHT22;22600;48.186;11.526;2023-05-10T08:38:37;25.70;50.70
34640;DHT22;22600;48.186;11.526;2023-05-10T08:41:02;23.90;49.80
34640;DHT22;22600;48.186;11.526;2023-05-10T08:43:28;24.00;49.80
34640;DHT22;22600;48.186;11.526;2023-05-10T08:45:55;24.00;49.80
34640;DHT22;22600;48.186;11.526;2023-05-10T08:48:22;24.00;49.90
34640;DHT22;22600;48.186;11.526;2023-05-10T08:50:48;23.90;49.90
34640;DHT22;22600;48.186;11.526;2023-05-10T08:53:13;23.90;49.80
34640;DHT22;22600;48.186;11.526;2023-05-10T08:55:40;25.80;50.90
34640;DHT22;22600;48.186;11.526;2023-05-10T08:58:07;23.80;49.80
34640;DHT22;22600;48.186;11.526;2023-05-10T09:00:33;24.00;50.00
34640;DHT22;22600;48.186;11.526;2023-05-10T09:02:59;23.90;49.90
34640;DHT22;22600;48.186;11.526;2023-05-10T09:05:24;23.90;49.90
34640;DHT22;22600;48.186;11.526;2023-05-10T09:07:50;23.90;49.90
34640;DHT22;22600;48.186;11.526;2023-05-10T09:10:15;24.00;49.90
34640;DHT22;22600;48.186;11.526;2023-05-10T09:12:41;24.00;49.90
34640;DHT22;22600;48.186;11.526;2023-05-10T09:15:07;24.10;50.00
34640;DHT22;22600;48.186;11.526;2023-05-10T09:17:33;23.90;49.90
34640;DHT22;22600;48.186;11.526;2023-05-10T09:20:02;24.00;49.90
34640;DHT22;22600;48.186;11.526;2023-05-10T09:22:32;24.00;50.00
34640;DHT22;22600;48.186;11.526;2023-05-10T09:25:07;24.00;50.00
34640;DHT22;22600;48.186;11.526;2023-05-10T09:27:33;24.00;50.00
34640;DHT22;22600;48.186;11.526;2023-05-10T09:29:59;24.00;49.90
34640;DHT22;22600;48.186;11.526;2023-05-10T09:32:38;24.00;49.90
34640;DHT22;22600;48.186;11.526;2023-05-10T09:35:13;24.00;49.90
34640;DHT22;22600;48.186;11.526;2023-05-10T09:37:39;24.00;49.90
34640;DHT22;22600;48.186;11.526;2023-05-10T09:40:11;24.00;49.90
34640;DHT22;22600;48.186;11.526;2023-05-10T09:42:36;24.00;49.90
34640;DHT22;22600;48.186;11.526;2023-05-10T09:45:03;24.00;50.00
34640;DHT22;22600;48.186;11.526;2023-05-10T09:47:28;24.00;49.90
34640;DHT22;22600;48.186;11.526;2023-05-10T09:49:54;24.00;50.00
34640;DHT22;22600;48.186;11.526;2023-05-10T09:52:28;24.00;50.00
34640;DHT22;22600;48.186;11.526;2023-05-10T09:54:53;24.00;50.00
34640;DHT22;22600;48.186;11.526;2023-05-10T09:57:20;24.00;50.00
34640;DHT22;22600;48.186;11.526;2023-05-10T09:59:46;24.00;50.00
34640;DHT22;22600;48.186;11.526;2023-05-10T10:02:12;23.90;50.00
34640;DHT22;22600;48.186;11.526;2023-05-10T10:04:40;24.00;50.00
34640;DHT22;22600;48.186;11.526;2023-05-10T10:07:06;24.00;50.00
34640;DHT22;22600;48.186;11.526;2023-05-10T10:09:32;24.00;50.00
34640;DHT22;22600;48.186;11.526;2023-05-10T10:11:58;23.90;49.90
34640;DHT22;22600;48.186;11.526;2023-05-10T10:14:24;24.00;50.00
34640;DHT22;22600;48.186;11.526;2023-05-10T10:16:50;24.00;50.00
34640;DHT22;22600;48.186;11.526;2023-05-10T10:19:17;24.50;50.30
34640;DHT22;22600;48.186;11.526;2023-05-10T10:21:43;24.00;50.00
34640;DHT22;22600;48.186;11.526;2023-05-10T10:24:08;24.00;50.00
34640;DHT22;22600;48.186;11.526;2023-05-10T10:26:34;24.00;50.30
34640;DHT22;22600;48.186;11.526;2023-05-10T10:34:28;24.00;50.70
34640;DHT22;22600;48.186;11.526;2023-05-10T10:36:55;24.00;50.80
34640;DHT22;22600;48.186;11.526;2023-05-10T10:39:23;24.00;51.10
34640;DHT22;22600;48.186;11.526;2023-05-10T10:41:53;24.00;51.40
34640;DHT22;22600;48.186;11.526;2023-05-10T10:44:22;24.10;51.40
34640;DHT22;22600;48.186;11.526;2023-05-10T10:52:14;24.10;51.50
34640;DHT22;22600;48.186;11.526;2023-05-10T10:54:46;24.10;51.60
34640;DHT22;22600;48.186;11.526;2023-05-10T10:57:17;24.10;51.60
34640;DHT22;22600;48.186;11.526;2023-05-10T10:59:44;24.10;51.70
34640;DHT22;22600;48.186;11.526;2023-05-10T11:04:59;24.10;51.80
34640;DHT22;22600;48.186;11.526;2023-05-10T11:07:30;24.10;51.80
34640;DHT22;22600;48.186;11.526;2023-05-10T11:10:11;24.10;51.80
34640;DHT22;22600;48.186;11.526;2023-05-10T11:15:43;24.10;51.80
34640;DHT22;22600;48.186;11.526;2023-05-10T11:18:20;24.20;51.90
34640;DHT22;22600;48.186;11.526;2023-05-10T11:20:57;24.20;51.90
34640;DHT22;22600;48.186;11.526;2023-05-10T11:24:15;24.20;51.80
34640;DHT22;22600;48.186;11.526;2023-05-10T11:26:26;24.20;51.80
34640;DHT22;22600;48.186;11.526;2023-05-10T11:29:15;24.20;51.80
34640;DHT22;22600;48.186;11.526;2023-05-10T11:31:44;24.20;51.90
34640;DHT22;22600;48.186;11.526;2023-05-10T11:34:10;24.20;52.00
34640;DHT22;22600;48.186;11.526;2023-05-10T11:36:36;24.10;52.00
34640;DHT22;22600;48.186;11.526;2023-05-10T11:39:02;24.20;52.00
34640;DHT22;22600;48.186;11.526;2023-05-10T11:41:28;24.20;52.10
34640;DHT22;22600;48.186;11.526;2023-05-10T11:43:54;24.20;52.20
34640;DHT22;22600;48.186;11.526;2023-05-10T11:46:21;24.20;52.80
34640;DHT22;22600;48.186;11.526;2023-05-10T11:48:49;24.20;52.30
34640;DHT22;22600;48.186;11.526;2023-05-10T11:51:15;24.20;52.40
34640;DHT22;22600;48.186;11.526;2023-05-10T11:53:44;24.20;52.40
34640;DHT22;22600;48.186;11.526;2023-05-10T11:56:10;24.20;52.40
34640;DHT22;22600;48.186;11.526;2023-05-10T11:58:36;24.20;52.50
34640;DHT22;22600;48.186;11.526;2023-05-10T12:01:02;24.20;52.50
34640;DHT22;22600;48.186;11.526;2023-05-10T12:03:28;24.20;52.50
34640;DHT22;22600;48.186;11.526;2023-05-10T12:05:54;24.20;52.60
34640;DHT22;22600;48.186;11.526;2023-05-10T12:08:20;24.20;52.60
34640;DHT22;22600;48.186;11.526;2023-05-10T12:10:47;24.20;52.60
34640;DHT22;22600;48.186;11.526;2023-05-10T12:13:12;24.20;52.70
34640;DHT22;22600;48.186;11.526;2023-05-10T12:15:39;24.30;52.70
34640;DHT22;22600;48.186;11.526;2023-05-10T12:18:05;24.20;52.70
34640;DHT22;22600;48.186;11.526;2023-05-10T12:20:31;24.20;52.70
34640;DHT22;22600;48.186;11.526;2023-05-10T12:22:57;24.30;52.80
34640;DHT22;22600;48.186;11.526;2023-05-10T12:25:24;24.30;52.80
34640;DHT22;22600;48.186;11.526;2023-05-10T12:27:53;25.50;53.40
34640;DHT22;22600;48.186;11.526;2023-05-10T12:30:22;24.30;52.90
34640;DHT22;22600;48.186;11.526;2023-05-10T12:32:49;24.30;52.80
34640;DHT22;22600;48.186;11.526;2023-05-10T12:35:14;24.30;52.80
34640;DHT22;22600;48.186;11.526;2023-05-10T12:37:42;24.30;52.90
34640;DHT22;22600;48.186;11.526;2023-05-10T12:40:08;24.30;52.90
34640;DHT22;22600;48.186;11.526;2023-05-10T12:42:34;24.30;52.90
34640;DHT22;22600;48.186;11.526;2023-05-10T12:45:01;24.30;52.90
34640;DHT22;22600;48.186;11.526;2023-05-10T12:47:27;22.00;51.80
34640;DHT22;22600;48.186;11.526;2023-05-10T12:49:52;24.30;52.90
34640;DHT22;22600;48.186;11.526;2023-05-10T12:52:17;24.30;52.90
34640;DHT22;22600;48.186;11.526;2023-05-10T12:54:43;24.30;52.90
34640;DHT22;22600;48.186;11.526;2023-05-10T12:57:08;24.30;53.00
34640;DHT22;22600;48.186;11.526;2023-05-10T12:59:34;24.30;52.90
34640;DHT22;22600;48.186;11.526;2023-05-10T13:01:59;24.30;52.90
34640;DHT22;22600;48.186;11.526;2023-05-10T13:04:25;24.30;52.90
34640;DHT22;22600;48.186;11.526;2023-05-10T13:06:51;24.30;52.90
34640;DHT22;22600;48.186;11.526;2023-05-10T13:09:16;24.30;52.90
34640;DHT22;22600;48.186;11.526;2023-05-10T13:11:42;24.30;52.90
34640;DHT22;22600;48.186;11.526;2023-05-10T13:14:07;24.30;52.90
34640;DHT22;22600;48.186;11.526;2023-05-10T13:16:33;24.30;52.60
34640;DHT22;22600;48.186;11.526;2023-05-10T13:18:58;24.30;52.50
34640;DHT22;22600;48.186;11.526;2023-05-10T13:21:24;24.30;52.50
34640;DHT22;22600;48.186;11.526;2023-05-10T13:23:50;24.30;52.30
34640;DHT22;22600;48.186;11.526;2023-05-10T13:26:16;24.30;52.40
34640;DHT22;22600;48.186;11.526;2023-05-10T13:28:41;24.30;52.40
34640;DHT22;22600;48.186;11.526;2023-05-10T13:31:07;24.30;52.20
34640;DHT22;22600;48.186;11.526;2023-05-10T13:33:32;24.20;52.30
34640;DHT22;22600;48.186;11.526;2023-05-10T13:35:58;25.20;52.90
34640;DHT22;22600;48.186;11.526;2023-05-10T13:38:23;24.30;52.50
34640;DHT22;22600;48.186;11.526;2023-05-10T13:40:49;24.30;52.50
34640;DHT22;22600;48.186;11.526;2023-05-10T13:43:20;24.30;52.50
34640;DHT22;22600;48.186;11.526;2023-05-10T13:45:46;24.30;52.60
34640;DHT22;22600;48.186;11.526;2023-05-10T13:48:11;24.30;52.70
34640;DHT22;22600;48.186;11.526;2023-05-10T13:50:37;24.30;52.80
34640;DHT22;22600;48.186;11.526;2023-05-10T13:53:02;24.30;52.80
34640;DHT22;22600;48.186;11.526;2023-05-10T13:55:28;24.30;52.90
34640;DHT22;22600;48.186;11.526;2023-05-10T13:57:53;24.30;53.60
34640;DHT22;22600;48.186;11.526;2023-05-10T14:00:19;24.30;53.10
34640;DHT22;22600;48.186;11.526;2023-05-10T14:02:44;24.30;53.10
34640;DHT22;22600;48.186;11.526;2023-05-10T14:05:10;24.30;53.20
34640;DHT22;22600;48.186;11.526;2023-05-10T14:07:35;24.30;53.20
34640;DHT22;22600;48.186;11.526;2023-05-10T14:10:01;27.60;55.20
34640;DHT22;22600;48.186;11.526;2023-05-10T14:12:27;24.30;53.30
34640;DHT22;22600;48.186;11.526;2023-05-10T14:14:52;24.30;53.30
34640;DHT22;22600;48.186;11.526;2023-05-10T14:17:18;24.40;53.40
34640;DHT22;22600;48.186;11.526;2023-05-10T14:19:44;24.40;53.50
34640;DHT22;22600;48.186;11.526;2023-05-10T14:22:10;24.40;53.50
34640;DHT22;22600;48.186;11.526;2023-05-10T14:24:35;24.30;53.50
34640;DHT22;22600;48.186;11.526;2023-05-10T14:27:01;24.70;53.70
34640;DHT22;22600;48.186;11.526;2023-05-10T14:29:27;24.40;53.60
34640;DHT22;22600;48.186;11.526;2023-05-10T14:31:52;24.40;53.60
34640;DHT22;22600;48.186;11.526;2023-05-10T14:34:18;24.40;53.70
34640;DHT22;22600;48.186;11.526;2023-05-10T14:36:43;24.40;53.70
34640;DHT22;22600;48.186;11.526;2023-05-10T14:39:09;24.40;53.70
34640;DHT22;22600;48.186;11.526;2023-05-10T14:41:38;24.40;53.70
34640;DHT22;22600;48.186;11.526;2023-05-10T14:44:06;24.40;53.70
34640;DHT22;22600;48.186;11.526;2023-05-10T14:46:31;24.40;53.70
34640;DHT22;22600;48.186;11.526;2023-05-10T14:48:57;24.40;53.80
34640;DHT22;22600;48.186;11.526;2023-05-10T14:51:22;24.40;53.80
34640;DHT22;22600;48.186;11.526;2023-05-10T14:53:48;24.40;53.80
34640;DHT22;22600;48.186;11.526;2023-05-10T14:56:14;24.50;53.90
34640;DHT22;22600;48.186;11.526;2023-05-10T14:58:40;24.40;53.90
34640;DHT22;22600;48.186;11.526;2023-05-10T15:01:05;24.40;53.90
34640;DHT22;22600;48.186;11.526;2023-05-10T15:03:31;24.50;54.00
34640;DHT22;22600;48.186;11.526;2023-05-10T15:05:56;24.50;54.00
34640;DHT22;22600;48.186;11.526;2023-05-10T15:08:23;24.50;54.00
34640;DHT22;22600;48.186;11.526;2023-05-10T15:10:49;24.50;54.10
34640;DHT22;22600;48.186;11.526;2023-05-10T15:13:15;24.50;54.10
34640;DHT22;22600;48.186;11.526;2023-05-10T15:15:41;24.50;54.10
34640;DHT22;22600;48.186;11.526;2023-05-10T15:18:06;24.50;54.20
34640;DHT22;22600;48.186;11.526;2023-05-10T15:20:32;24.50;54.10
34640;DHT22;22600;48.186;11.526;2023-05-10T15:22:57;24.40;54.00
34640;DHT22;22600;48.186;11.526;2023-05-10T15:25:23;24.50;53.80
34640;DHT22;22600;48.186;11.526;2023-05-10T15:27:49;24.50;53.60
34640;DHT22;22600;48.186;11.526;2023-05-10T15:30:14;24.50;53.40
34640;DHT22;22600;48.186;11.526;2023-05-10T15:32:40;24.50;53.20
34640;DHT22;22600;48.186;11.526;2023-05-10T15:35:06;24.50;53.10
34640;DHT22;22600;48.186;11.526;2023-05-10T15:37:32;24.40;52.90
34640;DHT22;22600;48.186;11.526;2023-05-10T15:39:57;24.40;52.90
34640;DHT22;22600;48.186;11.526;2023-05-10T15:42:28;24.40;52.90
34640;DHT22;22600;48.186;11.526;2023-05-10T15:44:55;24.50;52.80
34640;DHT22;22600;48.186;11.526;2023-05-10T15:47:20;24.40;52.80
34640;DHT22;22600;48.186;11.526;2023-05-10T15:49:46;24.40;52.80